createdAt,value
2019-01-09T00:00:14.823Z,9.6
2019-01-09T00:03:46.579Z,9.47
2019-01-09T00:07:16.578Z,6.05
2019-01-09T00:10:46.565Z,10.9
2019-01-09T00:14:16.611Z,9.14
2019-01-09T00:17:46.839Z,8.62
2019-01-09T00:21:16.855Z,5.7
2019-01-09T00:24:47.014Z,9.06
2019-01-09T00:28:17.063Z,9.65
2019-01-09T00:31:47.097Z,9.06
2019-01-09T00:35:17.095Z,8.84
2019-01-09T00:38:47.245Z,9.54
2019-01-09T00:42:17.289Z,4.96
2019-01-09T00:45:47.386Z,5.32
2019-01-09T00:49:17.493Z,7.5
2019-01-09T00:52:47.504Z,4.29
2019-01-09T00:56:17.598Z,6.67
2019-01-09T00:59:47.758Z,6.88
2019-01-09T01:11:07.526Z,8.3
2019-01-09T01:15:35.173Z,8.66
2019-01-09T01:21:31.868Z,5.71
2019-01-09T01:25:29.654Z,6.1
2019-01-09T01:29:42.532Z,4.31
2019-01-09T01:33:35.758Z,5.71
2019-01-09T01:37:33.255Z,7.32
2019-01-09T01:41:12.912Z,9.78
2019-01-09T01:44:53.839Z,7.62
2019-01-09T01:48:39.411Z,7.57
2019-01-09T01:52:54.873Z,6.99
2019-01-09T01:56:34.280Z,9.65
2019-01-09T02:00:26.027Z,12.54
2019-01-09T02:10:03.040Z,9.8
2019-01-09T02:13:52.146Z,8.67
2019-01-09T02:18:47.810Z,5.88
2019-01-09T02:23:02.029Z,6.53
2019-01-09T02:27:45.546Z,7.3
2019-01-09T02:31:26.753Z,8.52
2019-01-09T02:34:57.022Z,6.2
2019-01-09T02:38:28.146Z,4.47
2019-01-09T02:41:58.228Z,6.78
2019-01-09T02:45:28.283Z,5.71
2019-01-09T02:48:58.409Z,7.62
2019-01-09T02:52:28.477Z,8.47
2019-01-09T02:55:58.451Z,8.6
2019-01-09T02:59:28.581Z,10.81
2019-01-09T03:02:58.682Z,4.49
2019-01-09T03:06:28.965Z,10.35
2019-01-09T03:09:59.082Z,8
2019-01-09T03:13:29.170Z,6.64
2019-01-09T03:16:59.390Z,8.4
2019-01-09T03:20:29.484Z,11.16
2019-01-09T03:23:59.533Z,4.91
2019-01-09T03:27:29.628Z,4.03
2019-01-09T03:30:59.811Z,8.86
2019-01-09T03:34:29.853Z,6.06
2019-01-09T03:37:59.951Z,6.89
2019-01-09T03:41:30.027Z,8.4
2019-01-09T03:45:00.163Z,6.89
2019-01-09T03:48:30.173Z,5.38
2019-01-09T03:52:00.271Z,9.41
2019-01-09T03:55:30.339Z,8.15
2019-01-09T03:59:00.364Z,6.61
2019-01-09T04:00:14.813Z,5.34
2019-01-09T04:03:44.855Z,8.71
2019-01-09T04:07:15.907Z,3.7
2019-01-09T04:10:45.956Z,5.72
2019-01-09T04:14:15.986Z,4.65
2019-01-09T04:17:45.995Z,7.54
2019-01-09T04:21:15.949Z,8.4
2019-01-09T04:24:45.904Z,4.24
2019-01-09T04:28:15.983Z,11.21
2019-01-09T04:31:46.088Z,7.15
2019-01-09T04:35:16.227Z,7.28
2019-01-09T04:38:46.253Z,8.41
2019-01-09T04:42:16.690Z,3.24
2019-01-09T04:45:46.791Z,4.74
2019-01-09T04:49:16.955Z,7.92
2019-01-09T04:52:46.902Z,9.93
2019-01-09T04:56:16.940Z,6.39
2019-01-09T04:59:46.886Z,8.79
2019-01-09T05:03:17.044Z,5.81
2019-01-09T05:06:47.022Z,7.2
2019-01-09T05:10:18.128Z,8.01
2019-01-09T05:13:48.225Z,9.56
2019-01-09T05:17:18.312Z,8.94
2019-01-09T05:20:48.331Z,4.45
2019-01-09T05:24:18.347Z,8.05
2019-01-09T05:27:48.366Z,10.57
2019-01-09T05:31:18.393Z,9.5
2019-01-09T05:34:48.394Z,4.4
2019-01-09T05:38:18.417Z,5.76
2019-01-09T05:41:48.321Z,5.45
2019-01-09T05:45:18.352Z,6.47
2019-01-09T05:48:48.362Z,3.9
2019-01-09T05:52:18.476Z,6.9
2019-01-09T05:55:48.571Z,4.41
2019-01-09T05:59:18.620Z,8.52
2019-01-09T06:00:14.219Z,9.32
2019-01-09T06:03:44.157Z,8.59
2019-01-09T06:07:18.654Z,7.41
2019-01-09T06:10:49.101Z,6.8
2019-01-09T06:14:19.159Z,6.21
2019-01-09T06:17:49.284Z,6.99
2019-01-09T06:21:19.384Z,7.81
2019-01-09T06:24:49.401Z,8.41
2019-01-09T06:28:19.549Z,8.4
2019-01-09T06:31:49.566Z,3.85
2019-01-09T06:35:19.773Z,7.53
2019-01-09T06:38:49.780Z,8.55
2019-01-09T06:42:19.918Z,6.2
2019-01-09T06:45:49.995Z,5.12
2019-01-09T06:49:20.163Z,9.22
2019-01-09T06:52:50.229Z,8.59
2019-01-09T06:56:20.277Z,4.84
2019-01-09T06:59:50.284Z,6.26
2019-01-09T07:03:20.336Z,7.72
2019-01-09T07:06:50.358Z,5.42
2019-01-09T07:10:20.436Z,5.99
2019-01-09T07:13:51.343Z,8.57
2019-01-09T07:17:21.440Z,4.16
2019-01-09T07:20:51.512Z,10.16
2019-01-09T07:24:21.545Z,4.19
2019-01-09T07:27:51.563Z,3.59
2019-01-09T07:31:21.710Z,6.47
2019-01-09T07:34:51.737Z,4.84
2019-01-09T07:38:21.805Z,7.54
2019-01-09T07:41:51.902Z,5.9
2019-01-09T07:45:21.907Z,6.85
2019-01-09T07:48:51.957Z,5.76
2019-01-09T07:52:22.085Z,5.33
2019-01-09T07:55:52.111Z,9.62
2019-01-09T07:59:22.261Z,7.26
2019-01-09T08:00:14.318Z,6.56
2019-01-09T08:03:44.445Z,6.07
2019-01-09T08:07:14.425Z,8.24
2019-01-09T08:10:44.468Z,4.85
2019-01-09T08:14:15.564Z,6.39
2019-01-09T08:17:45.516Z,12.38
2019-01-09T08:21:15.632Z,7.45
2019-01-09T08:24:45.620Z,8.79
2019-01-09T08:28:15.747Z,4.25
2019-01-09T08:31:45.815Z,9.24
2019-01-09T08:35:15.943Z,8.91
2019-01-09T08:38:45.909Z,9.16
2019-01-09T08:42:15.967Z,6.4
2019-01-09T08:45:46.030Z,11.28
2019-01-09T08:49:16.039Z,6.7
2019-01-09T08:52:46.019Z,9.81
2019-01-09T08:56:16.045Z,12.14
2019-01-09T08:59:46.234Z,11.15
2019-01-09T09:03:16.283Z,7.35
2019-01-09T09:06:46.366Z,9.81
2019-01-09T09:10:16.437Z,9.34
2019-01-09T09:13:46.503Z,7.14
2019-01-09T09:17:16.901Z,9.64
2019-01-09T09:20:46.851Z,2.64
2019-01-09T09:24:16.957Z,10.03
2019-01-09T09:27:46.973Z,6.33
2019-01-09T09:31:17.080Z,10.73
2019-01-09T09:34:47.118Z,8.75
2019-01-09T09:38:20.703Z,11.39
2019-01-09T09:41:51.264Z,10.35
2019-01-09T09:45:21.390Z,7.41
2019-01-09T09:48:51.438Z,9.47
2019-01-09T09:52:21.531Z,9.69
2019-01-09T09:55:51.529Z,10.94
2019-01-09T09:59:21.577Z,10.66
2019-01-09T10:00:17.236Z,11.36
2019-01-09T10:03:47.218Z,8.6
2019-01-09T10:07:17.245Z,9.7
2019-01-09T10:10:47.313Z,10.09
2019-01-09T10:14:17.480Z,11.1
2019-01-09T10:17:48.468Z,10.1
2019-01-09T10:21:18.535Z,7.32
2019-01-09T10:24:48.621Z,9.62
2019-01-09T10:28:18.743Z,8.2
2019-01-09T10:31:48.740Z,11.88
2019-01-09T10:35:18.860Z,8.09
2019-01-09T10:38:48.943Z,8.61
2019-01-09T10:42:19.000Z,7.23
2019-01-09T10:45:49.068Z,7.88
2019-01-09T10:49:19.146Z,7.06
2019-01-09T10:52:49.223Z,8.44
2019-01-09T10:56:19.261Z,8.55
2019-01-09T10:59:49.278Z,7.96
2019-01-09T11:03:19.425Z,8.51
2019-01-09T11:06:49.573Z,8.07
2019-01-09T11:10:19.791Z,6.76
2019-01-09T11:13:49.798Z,7.29
2019-01-09T11:17:19.886Z,7.16
2019-01-09T11:20:50.873Z,3.77
2019-01-09T11:24:20.871Z,9.03
2019-01-09T11:27:50.929Z,6.97
2019-01-09T11:31:21.017Z,5.5
2019-01-09T11:34:50.985Z,7.33
2019-01-09T11:38:20.993Z,8.65
2019-01-09T11:41:50.919Z,7.2
2019-01-09T11:45:21.171Z,6.38
2019-01-09T11:48:51.475Z,6.07
2019-01-09T11:52:21.482Z,6.69
2019-01-09T11:55:51.513Z,7.39
2019-01-09T11:59:21.518Z,6.25
2019-01-09T12:00:18.357Z,6.8
2019-01-09T12:03:48.414Z,6.66
2019-01-09T12:07:18.453Z,5.83
2019-01-09T12:10:48.496Z,5.41
2019-01-09T12:14:18.618Z,6.83
2019-01-09T12:17:48.656Z,5.12
2019-01-09T12:21:19.603Z,6.8
2019-01-09T12:24:49.591Z,5.49
2019-01-09T12:28:19.663Z,5.26
2019-01-09T12:31:49.796Z,5.9
2019-01-09T12:35:19.929Z,7.42
2019-01-09T12:38:49.912Z,5.26
2019-01-09T12:42:19.982Z,7.35
2019-01-09T12:45:49.980Z,6.43
2019-01-09T12:49:20.165Z,5.9
2019-01-09T12:52:50.182Z,6.64
2019-01-09T12:56:20.270Z,6.26
2019-01-09T12:59:50.378Z,7
2019-01-09T13:03:20.425Z,6.42
2019-01-09T13:06:50.515Z,6.55
2019-01-09T13:10:20.641Z,9.31
2019-01-09T13:13:50.489Z,6.55
2019-01-09T13:17:20.506Z,9.95
2019-01-09T13:20:50.664Z,8.6
2019-01-09T13:24:21.661Z,7.04
2019-01-09T13:27:51.848Z,8.56
2019-01-09T13:31:21.927Z,6.89
2019-01-09T13:34:52.008Z,9.88
2019-01-09T13:38:22.042Z,10.3
2019-01-09T13:41:52.021Z,8.96
2019-01-09T13:45:22.127Z,9.57
2019-01-09T13:48:52.161Z,8.54
2019-01-09T13:52:22.422Z,8.22
2019-01-09T13:55:52.400Z,9.59
2019-01-09T13:59:22.438Z,10.41
2019-01-09T14:00:16.198Z,14.64
2019-01-09T14:03:46.256Z,9.66
2019-01-09T14:07:16.443Z,12.81
2019-01-09T14:10:46.571Z,11.12
2019-01-09T14:14:16.650Z,12.65
2019-01-09T14:17:46.878Z,12.68
2019-01-09T14:21:16.993Z,12.16
2019-01-09T14:24:48.013Z,12.84
2019-01-09T14:28:18.380Z,12.76
2019-01-09T14:31:48.406Z,13
2019-01-09T14:35:18.513Z,12.81
2019-01-09T14:38:48.615Z,13.05
2019-01-09T14:42:18.673Z,13.12
2019-01-09T14:45:49.386Z,12.59
2019-01-09T14:49:20.745Z,12.21
2019-01-09T14:52:50.860Z,14.05
2019-01-09T14:56:21.020Z,13.01
2019-01-09T14:59:51.068Z,15.9
2019-01-09T15:03:21.225Z,16.34
2019-01-09T15:06:51.321Z,14.06
2019-01-09T15:10:23.900Z,15.51
2019-01-09T15:13:54.048Z,16.38
2019-01-09T15:17:24.105Z,15.15
2019-01-09T15:20:54.283Z,20.26
2019-01-09T15:24:24.269Z,19.77
2019-01-09T15:27:54.419Z,19.57
2019-01-09T15:31:24.515Z,16.04
2019-01-09T15:34:54.484Z,16.07
2019-01-09T15:38:24.606Z,15.79
2019-01-09T15:41:54.662Z,21.88
2019-01-09T15:45:25.098Z,16.74
2019-01-09T15:48:58.726Z,18.91
2019-01-09T15:52:28.904Z,17.09
2019-01-09T15:55:58.939Z,18.29
2019-01-09T15:59:28.992Z,21.8
2019-01-09T16:00:18.196Z,17.81
2019-01-09T16:03:48.364Z,17.74
2019-01-09T16:07:18.402Z,16.3
2019-01-09T16:10:48.460Z,15.21
2019-01-09T16:14:18.527Z,15.35
2019-01-09T16:17:48.685Z,14.36
2019-01-09T16:21:18.762Z,15.06
2019-01-09T16:24:49.000Z,13.76
2019-01-09T16:28:19.974Z,13.84
2019-01-09T16:31:50.025Z,15.31
2019-01-09T16:35:20.743Z,11.82
2019-01-09T16:38:50.840Z,10.68
2019-01-09T16:42:20.950Z,9.54
2019-01-09T16:45:50.985Z,13.21
2019-01-09T16:49:27.890Z,12
2019-01-09T16:52:58.480Z,11.99
2019-01-09T16:56:28.918Z,13.65
2019-01-09T16:59:59.006Z,11.32
2019-01-09T17:03:29.085Z,14.66
2019-01-09T17:06:59.091Z,11.69
2019-01-09T17:10:32.535Z,13.76
2019-01-09T17:14:03.086Z,12.89
2019-01-09T17:17:33.144Z,14.66
2019-01-09T17:21:03.475Z,17.64
2019-01-09T17:24:33.773Z,13.26
2019-01-09T17:28:04.814Z,16.51
2019-01-09T17:31:35.795Z,23.64
2019-01-09T17:35:06.108Z,30.27
2019-01-09T17:38:36.182Z,35.54
2019-01-09T17:42:06.227Z,22.75
2019-01-09T17:45:36.274Z,29.95
2019-01-09T17:49:06.492Z,17.68
2019-01-09T17:52:36.560Z,12.61
2019-01-09T17:56:06.608Z,16.7
2019-01-09T17:59:36.710Z,13.85
2019-01-09T18:00:17.235Z,16.08
2019-01-09T18:03:47.169Z,12.39
2019-01-09T18:07:17.310Z,13.7
2019-01-09T18:10:50.366Z,14.96
2019-01-09T18:14:20.745Z,10.74
2019-01-09T18:17:51.224Z,18.64
2019-01-09T18:21:21.240Z,14.54
2019-01-09T18:24:51.348Z,18.85
2019-01-09T18:28:21.429Z,16.5
2019-01-09T18:32:22.683Z,16.86
2019-01-09T18:36:02.233Z,16.09
2019-01-09T18:39:46.339Z,23.61
2019-01-09T18:45:58.804Z,23.17
2019-01-09T18:50:19.781Z,11.27
2019-01-09T18:53:51.439Z,15.34
2019-01-09T18:57:21.516Z,12.8
2019-01-09T19:00:51.695Z,25.71
2019-01-09T19:04:21.782Z,26.99
2019-01-09T19:07:51.889Z,13.65
2019-01-09T19:11:21.946Z,12.82
2019-01-09T19:14:52.301Z,18.04
2019-01-09T19:18:22.372Z,18.82
2019-01-09T19:21:52.450Z,22.19
2019-01-09T19:25:22.650Z,18.46
2019-01-09T19:28:52.655Z,16.29
2019-01-09T19:32:23.693Z,20.62
2019-01-09T19:35:53.950Z,14.53
2019-01-09T19:39:24.177Z,15.94
2019-01-09T19:42:54.245Z,9.12
2019-01-09T19:46:24.292Z,7.79
2019-01-09T19:49:54.384Z,18.44
2019-01-09T19:53:24.438Z,16.86
2019-01-09T19:56:54.497Z,15.79
2019-01-09T20:00:16.354Z,15.33
2019-01-09T20:03:46.474Z,17.47
2019-01-09T20:07:16.608Z,13.56
2019-01-09T20:10:46.779Z,15.15
2019-01-09T20:14:16.900Z,12.34
2019-01-09T20:17:47.099Z,17.49
2019-01-09T20:21:17.117Z,12.31
2019-01-09T20:24:47.816Z,9.82
2019-01-09T20:28:17.834Z,10.55
2019-01-09T20:31:48.057Z,12.3
2019-01-09T20:35:19.110Z,12.57
2019-01-09T20:38:49.186Z,11.31
2019-01-09T20:42:19.294Z,14.89
2019-01-09T20:45:49.377Z,10.36
2019-01-09T20:49:19.409Z,13.96
2019-01-09T20:52:49.463Z,11.97
2019-01-09T20:56:19.635Z,11.89
2019-01-09T20:59:50.513Z,10.61
2019-01-09T21:03:20.580Z,13.12
2019-01-09T21:06:50.868Z,12.64
2019-01-09T21:10:20.936Z,7.85
2019-01-09T21:13:51.095Z,10.09
2019-01-09T21:17:21.164Z,9.04
2019-01-09T21:20:51.408Z,8.53
2019-01-09T21:24:21.436Z,8.5
2019-01-09T21:27:51.553Z,10.31
2019-01-09T21:31:21.701Z,10.35
2019-01-09T21:34:51.828Z,10.54
2019-01-09T21:38:22.066Z,9.75
2019-01-09T21:41:53.465Z,10.09
2019-01-09T21:45:23.777Z,10.45
2019-01-09T21:48:54.059Z,11.85
2019-01-09T21:52:24.187Z,14.07
2019-01-09T21:55:54.334Z,11.79
2019-01-09T21:59:24.413Z,7.96
2019-01-09T22:00:16.831Z,10.66
2019-01-09T22:03:46.829Z,10.05
2019-01-09T22:07:16.877Z,10.95
2019-01-09T22:10:47.175Z,10.78
2019-01-09T22:14:17.311Z,10.51
2019-01-09T22:17:47.420Z,9.55
2019-01-09T22:21:17.447Z,9.49
2019-01-09T22:24:47.545Z,8.34
2019-01-09T22:28:17.633Z,10.32
2019-01-09T22:31:47.721Z,9.85
2019-01-09T22:35:18.018Z,7.55
2019-01-09T22:38:49.077Z,10.14
2019-01-09T22:42:20.119Z,13.27
2019-01-09T22:45:50.266Z,8.5
2019-01-09T22:49:20.321Z,10.18
2019-01-09T22:52:50.527Z,11.74
2019-01-09T22:56:20.504Z,11.74
2019-01-09T22:59:50.651Z,12.39
2019-01-09T23:03:20.902Z,11.71
2019-01-09T23:06:51.085Z,11.86
2019-01-09T23:10:21.225Z,13.75
2019-01-09T23:13:51.665Z,11.09
2019-01-09T23:17:21.693Z,12.07
2019-01-09T23:20:51.837Z,10.96
2019-01-09T23:24:21.915Z,10.97
2019-01-09T23:27:52.132Z,11.22
2019-01-09T23:31:22.271Z,10.55
2019-01-09T23:34:52.459Z,11.06
2019-01-09T23:38:22.518Z,9.68
2019-01-09T23:41:53.731Z,10.77
2019-01-09T23:45:23.902Z,13.2
2019-01-09T23:48:54.089Z,11.68
2019-01-09T23:52:24.137Z,11.18
2019-01-09T23:55:54.315Z,9.34
2019-01-09T23:59:24.383Z,7.29
